createdAt,value
2023-03-20T00:02:05.032Z,-216.00
2023-03-20T00:07:15.513Z,-216.00
2023-03-20T00:13:02.757Z,-216.00
2023-03-20T00:18:28.954Z,-180.00
2023-03-20T00:23:24.296Z,-216.00
2023-03-20T00:28:31.800Z,-216.00
2023-03-20T00:33:39.529Z,-216.00
2023-03-20T00:38:51.768Z,-180.00
2023-03-20T00:43:59.550Z,-216.00
2023-03-20T00:49:16.396Z,-216.00
2023-03-20T00:54:19.993Z,-216.00
2023-03-20T00:59:29.266Z,-180.00
2023-03-20T01:04:41.589Z,-216.00
2023-03-20T01:10:05.328Z,-216.00
2023-03-20T01:15:17.889Z,-216.00
2023-03-20T01:20:25.510Z,-216.00
2023-03-20T01:25:33.419Z,-180.00
2023-03-20T01:30:43.549Z,-180.00
2023-03-20T01:35:55.858Z,-216.00
2023-03-20T01:41:07.082Z,-216.00
2023-03-20T01:46:14.949Z,-216.00
2023-03-20T01:51:29.049Z,-216.00
2023-03-20T01:56:36.606Z,-216.00
2023-03-20T02:01:43.990Z,-216.00
2023-03-20T02:06:51.452Z,-216.00
2023-03-20T02:11:58.788Z,-216.00
2023-03-20T02:17:06.154Z,-180.00
2023-03-20T02:22:13.461Z,-180.00
2023-03-20T02:27:20.629Z,-216.00
2023-03-20T02:32:27.877Z,-216.00
2023-03-20T02:37:35.235Z,-180.00
2023-03-20T02:42:42.283Z,-216.00
2023-03-20T02:47:49.464Z,-216.00
2023-03-20T02:52:56.662Z,-216.00
2023-03-20T02:58:03.932Z,-216.00
2023-03-20T03:03:11.113Z,-180.00
2023-03-20T03:08:18.291Z,-216.00
2023-03-20T03:13:25.458Z,-216.00
2023-03-20T03:18:32.642Z,-216.00
2023-03-20T03:23:39.854Z,-180.00
2023-03-20T03:28:47.111Z,-216.00
2023-03-20T03:33:54.370Z,-216.00
2023-03-20T03:39:01.619Z,-216.00
2023-03-20T03:44:08.782Z,-180.00
2023-03-20T03:49:15.958Z,-216.00
2023-03-20T03:54:23.173Z,-216.00
2023-03-20T03:59:30.371Z,-216.00
2023-03-20T04:04:37.532Z,-216.00
2023-03-20T04:09:44.844Z,-216.00
2023-03-20T04:14:52.009Z,-180.00
2023-03-20T04:19:59.310Z,-180.00
2023-03-20T04:25:06.625Z,-216.00
2023-03-20T04:30:13.991Z,-216.00
2023-03-20T04:35:21.318Z,-216.00
2023-03-20T04:40:28.749Z,-180.00
2023-03-20T04:45:36.279Z,-180.00
2023-03-20T04:50:43.346Z,-216.00
2023-03-20T04:55:50.825Z,-180.00
2023-03-20T05:00:58.329Z,-216.00
2023-03-20T05:06:05.594Z,-180.00
2023-03-20T05:11:12.975Z,-216.00
2023-03-20T05:16:20.422Z,-180.00
2023-03-20T05:21:27.620Z,-216.00
2023-03-20T05:26:35.050Z,-216.00
2023-03-20T05:31:42.199Z,-216.00
2023-03-20T05:36:49.508Z,-180.00
2023-03-20T05:41:57.041Z,-216.00
2023-03-20T05:47:04.397Z,-216.00
2023-03-20T05:52:11.794Z,-216.00
2023-03-20T05:57:19.214Z,-180.00
2023-03-20T06:02:26.715Z,-180.00
2023-03-20T06:07:34.126Z,-144.00
2023-03-20T06:12:41.636Z,-180.00
2023-03-20T06:17:52.653Z,-144.00
2023-03-20T06:23:00.007Z,-108.00
2023-03-20T06:28:07.373Z,-72.00
2023-03-20T06:33:14.902Z,-72.00
2023-03-20T06:38:22.050Z,8820.00
2023-03-20T06:43:29.579Z,10476.00
2023-03-20T06:48:36.850Z,11304.00
2023-03-20T06:53:44.232Z,12924.00
2023-03-20T06:58:51.472Z,12204.00
2023-03-20T07:03:58.814Z,12780.00
2023-03-20T07:09:06.234Z,12996.00
2023-03-20T07:14:13.584Z,13536.00
2023-03-20T07:19:21.143Z,14616.00
2023-03-20T07:24:28.482Z,12924.00
2023-03-20T07:29:35.907Z,13608.00
2023-03-20T07:34:43.300Z,13428.00
2023-03-20T07:39:50.719Z,14544.00
2023-03-20T07:44:58.192Z,14472.00
2023-03-20T07:50:08.131Z,15012.00
2023-03-20T07:55:12.747Z,16776.00
2023-03-20T08:00:20.150Z,19080.00
2023-03-20T08:05:27.399Z,22068.00
2023-03-20T08:10:34.767Z,22536.00
2023-03-20T08:15:42.270Z,22896.00
2023-03-20T08:20:49.545Z,22140.00
2023-03-20T08:25:57.153Z,22392.00
2023-03-20T08:31:04.516Z,22320.00
2023-03-20T08:36:11.824Z,22572.00
2023-03-20T08:41:19.104Z,19044.00
2023-03-20T08:46:26.422Z,16992.00
2023-03-20T08:51:33.623Z,20736.00
2023-03-20T08:56:40.922Z,22212.00
2023-03-20T09:01:50.289Z,22788.00
2023-03-20T09:06:55.485Z,23004.00
2023-03-20T09:12:02.774Z,25308.00
2023-03-20T09:17:10.125Z,25200.00
2023-03-20T09:22:21.369Z,23436.00
2023-03-20T09:27:28.722Z,23112.00
2023-03-20T09:32:36.185Z,22932.00
2023-03-20T09:37:43.408Z,21564.00
2023-03-20T09:42:50.774Z,21276.00
2023-03-20T09:47:58.207Z,20340.00
2023-03-20T09:53:05.508Z,19800.00
2023-03-20T09:58:12.875Z,20268.00
2023-03-20T10:03:20.241Z,16524.00
2023-03-20T10:08:27.419Z,16416.00
2023-03-20T10:13:34.648Z,17856.00
2023-03-20T10:18:41.912Z,18720.00
2023-03-20T10:23:49.172Z,18720.00
2023-03-20T10:28:56.323Z,19512.00
2023-03-20T10:34:03.815Z,19584.00
2023-03-20T10:39:11.156Z,22608.00
2023-03-20T10:44:18.549Z,20700.00
2023-03-20T10:49:26.118Z,18252.00
2023-03-20T10:54:33.478Z,20268.00
2023-03-20T10:59:40.762Z,20700.00
2023-03-20T11:04:48.085Z,19656.00
2023-03-20T11:09:55.411Z,18252.00
2023-03-20T11:15:07.554Z,21924.00
2023-03-20T11:20:14.873Z,22716.00
2023-03-20T11:25:22.285Z,23004.00
2023-03-20T11:30:29.654Z,24948.00
2023-03-20T11:35:37.240Z,21888.00
2023-03-20T11:40:44.613Z,18684.00
2023-03-20T11:45:56.978Z,19188.00
2023-03-20T11:51:04.579Z,20052.00
2023-03-20T11:56:18.193Z,19836.00
2023-03-20T12:01:25.910Z,19692.00
2023-03-20T12:06:33.462Z,19512.00
2023-03-20T12:11:41.343Z,19764.00
2023-03-20T12:16:49.831Z,19620.00
2023-03-20T12:21:57.785Z,23004.00
2023-03-20T12:27:26.122Z,17136.00
2023-03-20T12:32:29.492Z,16164.00
2023-03-20T12:37:55.897Z,19584.00
2023-03-20T12:43:07.418Z,19908.00
2023-03-20T12:48:22.032Z,18324.00
2023-03-20T12:53:30.594Z,14904.00
2023-03-20T12:58:44.694Z,18252.00
2023-03-20T13:04:27.397Z,17676.00
2023-03-20T13:09:55.622Z,15336.00
2023-03-20T13:14:57.866Z,17712.00
2023-03-20T13:20:14.020Z,14832.00
2023-03-20T13:25:16.396Z,15012.00
2023-03-20T13:30:28.616Z,17352.00
2023-03-20T13:35:43.075Z,17352.00
2023-03-20T13:46:40.322Z,16956.00
2023-03-20T13:47:33.849Z,17208.00
2023-03-20T13:51:45.235Z,16920.00
2023-03-20T13:57:05.482Z,16884.00
2023-03-20T14:02:48.238Z,16704.00
2023-03-20T14:08:01.828Z,16884.00
2023-03-20T14:13:09.418Z,16524.00
2023-03-20T14:23:38.259Z,15876.00
2023-03-20T14:28:53.113Z,15588.00
2023-03-20T14:33:58.623Z,15552.00
2023-03-20T14:39:07.790Z,15372.00
2023-03-20T14:44:15.261Z,15264.00
2023-03-20T14:49:26.124Z,15228.00
2023-03-20T14:54:34.570Z,15264.00
2023-03-20T14:59:45.880Z,15084.00
2023-03-20T15:04:54.067Z,14904.00
2023-03-20T15:10:05.230Z,15660.00
2023-03-20T15:15:12.653Z,14796.00
2023-03-20T15:20:20.231Z,14976.00
2023-03-20T15:25:27.815Z,15840.00
2023-03-20T15:30:38.923Z,16704.00
2023-03-20T15:35:55.131Z,16740.00
2023-03-20T15:41:02.549Z,16272.00
2023-03-20T15:46:19.070Z,16308.00
2023-03-20T15:51:17.676Z,15876.00
2023-03-20T15:56:25.089Z,15552.00
2023-03-20T16:01:54.272Z,15120.00
2023-03-20T16:06:45.428Z,14616.00
2023-03-20T16:11:53.447Z,14364.00
2023-03-20T16:17:01.151Z,14868.00
2023-03-20T16:22:23.521Z,15408.00
2023-03-20T16:27:30.840Z,15408.00
2023-03-20T16:32:39.790Z,15444.00
2023-03-20T16:37:47.309Z,15336.00
2023-03-20T16:43:09.575Z,13824.00
2023-03-20T16:48:18.763Z,13356.00
2023-03-20T16:53:26.116Z,11916.00
2023-03-20T16:58:33.310Z,10116.00
2023-03-20T17:03:45.891Z,8604.00
2023-03-20T17:08:53.253Z,6876.00
2023-03-20T17:14:00.625Z,5148.00
2023-03-20T17:19:08.057Z,3852.00
2023-03-20T17:24:19.169Z,2736.00
2023-03-20T17:29:26.585Z,1584.00
2023-03-20T17:34:34.252Z,2196.00
2023-03-20T17:39:41.732Z,1692.00
2023-03-20T17:44:49.187Z,468.00
2023-03-20T17:49:56.266Z,36.00
2023-03-20T17:55:03.813Z,-72.00
2023-03-20T18:00:11.126Z,-108.00
2023-03-20T18:05:18.378Z,-108.00
2023-03-20T18:10:25.551Z,-108.00
2023-03-20T18:15:33.070Z,-144.00
2023-03-20T18:20:40.637Z,-108.00
2023-03-20T18:25:48.279Z,-180.00
2023-03-20T18:30:55.894Z,-144.00
2023-03-20T18:36:03.215Z,-144.00
2023-03-20T18:41:10.710Z,-144.00
2023-03-20T18:46:18.496Z,-216.00
2023-03-20T18:51:27.078Z,-180.00
2023-03-20T18:56:34.894Z,-216.00
2023-03-20T19:01:42.375Z,-216.00
2023-03-20T19:06:49.519Z,-216.00
2023-03-20T19:11:57.015Z,-180.00
2023-03-20T19:17:04.603Z,-216.00
2023-03-20T19:22:22.691Z,-216.00
2023-03-20T19:27:19.958Z,-216.00
2023-03-20T19:32:27.522Z,-216.00
2023-03-20T19:37:35.171Z,-216.00
2023-03-20T19:43:01.051Z,-216.00
2023-03-20T19:47:50.492Z,-216.00
2023-03-20T19:52:58.103Z,-180.00
2023-03-20T19:58:05.849Z,-216.00
2023-03-20T20:03:13.638Z,-216.00
2023-03-20T20:08:29.998Z,1080.00
2023-03-20T20:13:28.379Z,1404.00
2023-03-20T20:18:36.091Z,9756.00
2023-03-20T20:23:43.593Z,9540.00
2023-03-20T20:28:51.225Z,9540.00
2023-03-20T20:34:36.790Z,9504.00
2023-03-20T20:39:06.809Z,9324.00
2023-03-20T20:44:17.292Z,9396.00
2023-03-20T20:49:21.888Z,9468.00
2023-03-20T20:54:29.541Z,9504.00
2023-03-20T20:59:36.963Z,9504.00
2023-03-20T21:04:44.420Z,9576.00
2023-03-20T21:09:51.751Z,9720.00
2023-03-20T21:14:59.045Z,9540.00
2023-03-20T21:20:06.291Z,9612.00
2023-03-20T21:25:15.343Z,9648.00
2023-03-20T21:30:21.494Z,9000.00
2023-03-20T21:35:28.246Z,9180.00
2023-03-20T21:40:35.439Z,9144.00
2023-03-20T21:51:26.253Z,9000.00
2023-03-20T21:56:40.064Z,9000.00
2023-03-20T22:07:09.613Z,9180.00
2023-03-20T22:37:39.382Z,9036.00
2023-03-20T22:47:09.606Z,7848.00
2023-03-20T22:52:28.969Z,8748.00
2023-03-20T22:57:29.029Z,7920.00
2023-03-20T23:02:31.227Z,8388.00
2023-03-20T23:07:38.501Z,8064.00
2023-03-20T23:12:45.759Z,8136.00
2023-03-20T23:17:53.006Z,7956.00
2023-03-20T23:23:00.237Z,7992.00
2023-03-20T23:28:07.504Z,8064.00
2023-03-20T23:33:14.728Z,8172.00
2023-03-20T23:38:21.933Z,8352.00
2023-03-20T23:43:29.179Z,7956.00
2023-03-20T23:48:36.392Z,8244.00
2023-03-20T23:53:43.556Z,8028.00
2023-03-20T23:58:59.372Z,8280.00
